Time;durP1;ratioP1;P1;durP2;ratioP2;P2;SDS_P1;SDS_P2;PMS_P1;PMS_P2;Temp;Humidity;BMP_temperature;BMP_pressure;BME280_temperature;BME280_humidity;BME280_pressure;Samples;Min_cycle;Max_cycle;Signal;HPM_P1;HPM_P2
2023/06/02 00:01:14;;;;;;;4.70;4.18;;;14.90;99.90;;;;;;4959107;28;20129;-68
2023/06/02 00:03:42;;;;;;;4.55;4.15;;;14.90;99.90;;;;;;4966282;28;20110;-68
2023/06/02 00:06:09;;;;;;;4.03;3.60;;;15.00;99.90;;;;;;4965490;28;20555;-67
2023/06/02 00:08:40;;;;;;;4.72;4.15;;;15.00;99.90;;;;;;4952458;28;20041;-68
2023/06/02 00:11:07;;;;;;;4.75;3.05;;;15.00;99.90;;;;;;4971065;28;20336;-68
2023/06/02 00:13:33;;;;;;;7.38;3.03;;;15.00;99.90;;;;;;4967068;28;20045;-67
2023/06/02 00:15:59;;;;;;;5.22;3.28;;;14.90;99.90;;;;;;4966186;28;20053;-67
2023/06/02 00:18:25;;;;;;;7.38;3.60;;;14.90;99.90;;;;;;4967018;28;20047;-67
2023/06/02 00:20:52;;;;;;;4.65;3.40;;;14.80;99.90;;;;;;4971927;28;20034;-69
2023/06/02 00:23:18;;;;;;;5.20;3.88;;;14.80;99.90;;;;;;4964710;28;20031;-69
2023/06/02 00:25:44;;;;;;;6.18;3.30;;;14.80;99.90;;;;;;4962349;28;20031;-70
2023/06/02 00:28:10;;;;;;;3.85;3.45;;;14.80;99.90;;;;;;4963678;28;20090;-69
2023/06/02 00:30:36;;;;;;;8.23;3.85;;;14.70;99.90;;;;;;4966898;28;20527;-66
2023/06/02 00:33:02;;;;;;;3.75;3.45;;;14.70;99.90;;;;;;4956842;28;20233;-67
2023/06/02 00:35:28;;;;;;;5.32;3.78;;;14.70;99.90;;;;;;4961958;28;20858;-66
2023/06/02 00:37:54;;;;;;;4.53;3.40;;;14.70;99.90;;;;;;4962947;28;20023;-66
2023/06/02 00:40:21;;;;;;;4.68;2.95;;;14.70;99.90;;;;;;4964731;28;20500;-67
2023/06/02 00:42:47;;;;;;;6.50;3.28;;;14.60;99.90;;;;;;4974572;28;20038;-68
2023/06/02 00:45:12;;;;;;;6.03;3.35;;;14.60;99.90;;;;;;4966192;28;20038;-68
2023/06/02 00:47:38;;;;;;;5.40;2.70;;;14.60;99.90;;;;;;4963263;28;20041;-68
2023/06/02 00:50:04;;;;;;;4.80;3.10;;;14.50;99.90;;;;;;4962375;28;20783;-68
2023/06/02 00:52:33;;;;;;;4.53;3.22;;;14.50;99.90;;;;;;4962900;28;20031;-68
2023/06/02 00:54:59;;;;;;;5.55;3.72;;;14.50;99.90;;;;;;4958614;28;20673;-68
2023/06/02 00:57:28;;;;;;;4.50;2.95;;;14.50;99.90;;;;;;4959067;28;20609;-70
2023/06/02 00:59:58;;;;;;;4.80;3.20;;;14.50;99.90;;;;;;4967700;28;20698;-70
2023/06/02 01:02:24;;;;;;;7.28;3.55;;;14.40;99.90;;;;;;4971365;28;20131;-69
2023/06/02 01:04:51;;;;;;;6.63;3.05;;;14.50;99.90;;;;;;4965377;28;20598;-69
2023/06/02 01:07:23;;;;;;;3.20;2.95;;;14.50;99.90;;;;;;4962361;28;20015;-70
2023/06/02 01:09:55;;;;;;;;;;;14.40;99.90;;;;;;4970021;28;20031;-70
2023/06/02 01:12:22;;;;;;;;;;;14.40;99.90;;;;;;4971502;28;20845;-69
2023/06/02 01:14:48;;;;;;;8.13;3.38;;;14.40;99.90;;;;;;4962003;28;20038;-70
2023/06/02 01:17:14;;;;;;;4.47;2.80;;;14.20;99.90;;;;;;4964584;28;20453;-70
2023/06/02 01:19:40;;;;;;;5.07;3.30;;;14.20;99.90;;;;;;4968232;28;20069;-70
2023/06/02 01:22:09;;;;;;;6.10;2.90;;;14.30;99.90;;;;;;4957347;28;20945;-71
2023/06/02 01:24:40;;;;;;;4.55;2.80;;;14.20;99.90;;;;;;4964583;28;20113;-72
2023/06/02 01:27:12;;;;;;;7.20;3.20;;;14.20;99.90;;;;;;4962510;28;20498;-71
2023/06/02 01:29:38;;;;;;;;;;;14.10;99.90;;;;;;4964619;28;20099;-71
2023/06/02 01:32:10;;;;;;;5.15;2.88;;;14.00;99.90;;;;;;4954663;28;19922;-71
2023/06/02 01:34:50;;;;;;;5.15;3.50;;;14.00;99.90;;;;;;4961842;28;20483;-71
2023/06/02 01:37:18;;;;;;;5.60;3.15;;;14.00;99.90;;;;;;4961528;28;20061;-71
2023/06/02 01:39:46;;;;;;;6.25;3.45;;;14.10;99.90;;;;;;4962010;28;20510;-71
2023/06/02 01:42:15;;;;;;;3.95;3.25;;;14.10;99.90;;;;;;4967027;28;20437;-71
2023/06/02 01:44:42;;;;;;;2.72;2.50;;;14.20;99.90;;;;;;4976279;28;20023;-72
2023/06/02 01:47:09;;;;;;;4.47;3.20;;;14.30;99.90;;;;;;4963528;28;20509;-71
2023/06/02 01:49:35;;;;;;;3.70;2.83;;;14.20;99.90;;;;;;4961729;28;20272;-72
2023/06/02 01:52:00;;;;;;;4.68;3.63;;;14.10;99.90;;;;;;4956891;28;20080;-71
2023/06/02 01:54:26;;;;;;;4.47;3.20;;;14.10;99.90;;;;;;4968549;28;20030;-72
2023/06/02 01:56:52;;;;;;;3.95;3.17;;;14.10;99.90;;;;;;4959772;28;20498;-70
2023/06/02 01:59:18;;;;;;;5.22;3.17;;;14.00;99.90;;;;;;4974087;28;20121;-70
2023/06/02 02:01:44;;;;;;;3.42;3.13;;;13.90;99.90;;;;;;4964027;28;20117;-70
2023/06/02 02:04:10;;;;;;;5.05;3.45;;;14.00;99.90;;;;;;4965069;28;20027;-70
2023/06/02 02:06:37;;;;;;;6.70;2.90;;;14.00;99.90;;;;;;4974119;28;20394;-70
2023/06/02 02:09:09;;;;;;;4.15;3.15;;;14.10;99.90;;;;;;4961903;28;20410;-69
2023/06/02 02:11:36;;;;;;;8.73;3.20;;;14.10;99.90;;;;;;4970265;28;20028;-70
2023/06/02 02:14:05;;;;;;;7.10;3.50;;;14.20;99.90;;;;;;4965749;28;20087;-70
2023/06/02 02:16:30;;;;;;;8.98;3.08;;;14.20;99.90;;;;;;4969940;28;20022;-72
2023/06/02 02:18:58;;;;;;;3.65;2.97;;;14.20;99.90;;;;;;4964487;28;20049;-72
2023/06/02 02:21:24;;;;;;;6.40;3.13;;;14.10;99.90;;;;;;4970179;28;20053;-71
2023/06/02 02:23:50;;;;;;;3.53;2.78;;;14.10;99.90;;;;;;4978176;28;20030;-71
2023/06/02 02:26:18;;;;;;;5.15;3.08;;;14.10;99.90;;;;;;4963645;28;20030;-72
2023/06/02 02:28:44;;;;;;;3.30;2.95;;;14.00;99.90;;;;;;4966940;28;20092;-73
2023/06/02 02:31:10;;;;;;;6.95;3.45;;;13.90;99.90;;;;;;4963327;28;20102;-72
2023/06/02 02:33:36;;;;;;;8.13;3.30;;;13.80;99.90;;;;;;4972615;28;20038;-72
2023/06/02 02:36:03;;;;;;;7.20;3.58;;;13.70;99.90;;;;;;4962070;28;20033;-70
2023/06/02 02:38:28;;;;;;;6.30;3.83;;;13.80;99.90;;;;;;4979521;28;20039;-71
2023/06/02 02:40:54;;;;;;;6.57;3.63;;;13.80;99.90;;;;;;4966589;28;20030;-71
2023/06/02 02:43:21;;;;;;;8.25;3.88;;;13.80;99.90;;;;;;4966465;28;20034;-70
2023/06/02 02:45:47;;;;;;;5.28;3.22;;;13.80;99.90;;;;;;4979484;28;20084;-71
2023/06/02 02:48:13;;;;;;;5.72;3.17;;;13.90;99.90;;;;;;4971131;28;20027;-70
2023/06/02 02:50:38;;;;;;;5.65;3.13;;;13.90;99.90;;;;;;4964676;28;20560;-71
2023/06/02 02:53:04;;;;;;;4.82;3.10;;;13.90;99.90;;;;;;4972834;28;20608;-71
2023/06/02 02:55:32;;;;;;;3.88;2.67;;;13.80;99.90;;;;;;4965807;28;20031;-71
2023/06/02 02:57:59;;;;;;;4.13;3.20;;;13.70;99.90;;;;;;4967505;28;20034;-72
2023/06/02 03:00:25;;;;;;;6.07;3.05;;;13.70;99.90;;;;;;4968453;28;20716;-73
2023/06/02 03:02:51;;;;;;;4.95;3.50;;;13.70;99.90;;;;;;4963537;28;20023;-73
2023/06/02 03:05:17;;;;;;;4.13;3.20;;;13.60;99.90;;;;;;4968457;28;20271;-72
2023/06/02 03:07:44;;;;;;;3.55;3.25;;;13.60;99.90;;;;;;4968252;28;20119;-72
2023/06/02 03:10:10;;;;;;;7.63;3.60;;;13.70;99.90;;;;;;4969368;28;20105;-72
2023/06/02 03:12:36;;;;;;;4.38;3.58;;;13.70;99.90;;;;;;4967427;28;20042;-72
2023/06/02 03:15:02;;;;;;;5.70;3.55;;;13.80;99.90;;;;;;4969240;28;20414;-70
2023/06/02 03:17:27;;;;;;;5.10;3.40;;;13.70;99.90;;;;;;4961792;28;20073;-71
2023/06/02 03:19:55;;;;;;;4.07;3.00;;;13.70;99.90;;;;;;4967394;28;20486;-70
2023/06/02 03:22:21;;;;;;;3.65;2.80;;;13.70;99.90;;;;;;4967437;28;20034;-70
2023/06/02 03:24:46;;;;;;;3.50;2.95;;;13.70;99.90;;;;;;4966350;28;20566;-71
2023/06/02 03:27:15;;;;;;;4.60;3.08;;;13.70;99.90;;;;;;4967740;28;20034;-70
2023/06/02 03:29:41;;;;;;;3.85;2.97;;;13.70;99.90;;;;;;4964156;28;20792;-71
2023/06/02 03:32:11;;;;;;;3.70;2.90;;;13.70;99.90;;;;;;4963949;28;20026;-70
2023/06/02 03:34:39;;;;;;;4.35;3.10;;;13.70;99.90;;;;;;4961090;28;20046;-71
2023/06/02 03:37:09;;;;;;;3.20;2.90;;;13.70;99.90;;;;;;4967645;28;20045;-71
2023/06/02 03:39:35;;;;;;;6.90;2.95;;;13.80;99.90;;;;;;4965412;28;20046;-71
2023/06/02 03:42:01;;;;;;;4.93;3.30;;;13.80;99.90;;;;;;4970609;28;20075;-71
2023/06/02 03:44:26;;;;;;;5.32;3.42;;;13.80;99.90;;;;;;4967717;28;20113;-71
2023/06/02 03:46:52;;;;;;;5.53;3.42;;;13.80;99.90;;;;;;4961731;28;20030;-70
2023/06/02 03:49:18;;;;;;;10.18;3.47;;;13.80;99.90;;;;;;4975199;28;20030;-70
2023/06/02 03:51:44;;;;;;;8.52;3.38;;;13.80;99.90;;;;;;4975056;28;20031;-70
2023/06/02 03:54:10;;;;;;;5.82;3.80;;;13.90;99.90;;;;;;4969460;28;20543;-70
2023/06/02 03:56:36;;;;;;;92.32;35.58;;;14.00;99.90;;;;;;4956403;28;20035;-69
2023/06/02 03:59:02;;;;;;;53.28;26.02;;;14.10;99.90;;;;;;4963991;28;20108;-70
2023/06/02 04:01:28;;;;;;;67.70;30.17;;;14.20;99.90;;;;;;4963534;28;20033;-69
2023/06/02 04:03:54;;;;;;;43.75;21.60;;;14.30;99.90;;;;;;4966835;28;20041;-69
2023/06/02 04:06:21;;;;;;;53.45;23.63;;;14.40;99.90;;;;;;4970669;28;20105;-69
2023/06/02 04:08:47;;;;;;;36.05;17.77;;;14.50;99.90;;;;;;4964731;28;20034;-70
2023/06/02 04:11:13;;;;;;;17.35;9.85;;;14.60;99.90;;;;;;4959516;28;20627;-70
2023/06/02 04:13:38;;;;;;;20.33;10.85;;;14.80;99.90;;;;;;4963015;28;20492;-70
2023/06/02 04:16:04;;;;;;;21.83;11.50;;;14.90;99.90;;;;;;4956521;28;20034;-70
2023/06/02 04:18:31;;;;;;;26.63;11.52;;;15.00;99.90;;;;;;4959921;28;20055;-71
2023/06/02 04:21:00;;;;;;;24.00;12.05;;;15.10;99.90;;;;;;4971102;28;20023;-71
2023/06/02 04:23:26;;;;;;;36.08;12.07;;;15.30;99.90;;;;;;4972192;28;20045;-72
2023/06/02 04:25:51;;;;;;;24.55;11.23;;;15.40;99.90;;;;;;4961759;28;20458;-72
2023/06/02 04:28:19;;;;;;;17.08;9.25;;;15.50;99.90;;;;;;4964943;28;20046;-70
2023/06/02 04:30:45;;;;;;;23.40;9.45;;;15.60;99.90;;;;;;4960037;28;20480;-71
2023/06/02 04:33:12;;;;;;;15.40;8.55;;;15.70;99.90;;;;;;4957243;28;20027;-71
2023/06/02 04:35:38;;;;;;;21.70;8.20;;;15.90;99.90;;;;;;4965452;28;20054;-73
2023/06/02 04:38:03;;;;;;;10.32;5.63;;;16.10;99.90;;;;;;4964349;28;20102;-72
2023/06/02 04:40:29;;;;;;;6.70;5.15;;;16.20;99.90;;;;;;4964389;28;20050;-71
2023/06/02 04:42:56;;;;;;;32.15;5.85;;;16.40;99.90;;;;;;4969699;28;20019;-70
2023/06/02 04:45:21;;;;;;;6.25;4.70;;;16.50;99.90;;;;;;4960394;28;20035;-70
2023/06/02 04:47:48;;;;;;;7.47;4.32;;;16.70;99.90;;;;;;4960932;28;20120;-69
2023/06/02 04:50:14;;;;;;;23.15;4.90;;;16.80;99.90;;;;;;4958425;28;20031;-69
2023/06/02 04:52:41;;;;;;;7.97;4.03;;;17.00;99.90;;;;;;4961028;28;20556;-72
2023/06/02 04:55:08;;;;;;;6.20;4.20;;;17.10;99.90;;;;;;4967033;28;20047;-69
2023/06/02 04:57:34;;;;;;;8.45;3.70;;;17.30;99.90;;;;;;4964334;28;20030;-72
2023/06/02 05:00:01;;;;;;;7.80;3.45;;;17.40;99.90;;;;;;4958323;28;20406;-70
2023/06/02 05:02:27;;;;;;;6.35;3.60;;;17.50;99.90;;;;;;4961164;28;20084;-70
2023/06/02 05:04:52;;;;;;;6.15;4.05;;;17.60;99.90;;;;;;4965606;28;20114;-71
2023/06/02 05:07:18;;;;;;;7.20;3.53;;;17.80;99.90;;;;;;4967912;28;20019;-70
2023/06/02 05:09:44;;;;;;;7.10;3.83;;;17.90;99.90;;;;;;4968939;28;20080;-76
2023/06/02 05:12:10;;;;;;;6.47;4.20;;;18.00;99.90;;;;;;4965837;28;20061;-71
2023/06/02 05:14:36;;;;;;;9.30;4.32;;;18.10;99.90;;;;;;4967062;28;20033;-70
2023/06/02 05:17:02;;;;;;;6.50;4.20;;;18.30;99.90;;;;;;4964707;28;20066;-71
2023/06/02 05:19:28;;;;;;;16.45;4.78;;;18.40;99.90;;;;;;4966928;28;20038;-69
2023/06/02 05:21:54;;;;;;;8.95;4.00;;;18.60;99.90;;;;;;4967670;28;20069;-70
2023/06/02 05:24:20;;;;;;;7.82;3.95;;;18.70;99.90;;;;;;4974376;28;20130;-69
2023/06/02 05:26:45;;;;;;;11.50;4.63;;;18.80;99.90;;;;;;4971259;28;20042;-67
2023/06/02 05:29:11;;;;;;;6.20;3.97;;;18.90;99.90;;;;;;4974707;28;20020;-69
2023/06/02 05:31:37;;;;;;;6.07;4.45;;;19.00;99.90;;;;;;4965009;28;20033;-68
2023/06/02 05:34:03;;;;;;;5.07;3.42;;;19.10;99.90;;;;;;4968014;28;20079;-68
2023/06/02 05:36:28;;;;;;;7.13;4.07;;;19.20;99.90;;;;;;4967497;28;20027;-69
2023/06/02 05:38:54;;;;;;;8.77;4.05;;;19.30;99.90;;;;;;4964547;28;20471;-68
2023/06/02 05:41:20;;;;;;;5.30;3.83;;;19.40;99.90;;;;;;4971700;28;20049;-69
2023/06/02 05:43:46;;;;;;;6.53;3.55;;;19.60;99.90;;;;;;4970035;28;20086;-69
2023/06/02 05:46:11;;;;;;;6.88;3.90;;;19.60;99.90;;;;;;4973058;28;20058;-73
2023/06/02 05:48:38;;;;;;;5.10;3.90;;;19.70;99.90;;;;;;4969764;28;20087;-69
2023/06/02 05:51:04;;;;;;;4.00;3.58;;;19.80;99.90;;;;;;4992135;28;20030;-69
2023/06/02 05:53:29;;;;;;;6.85;4.10;;;20.00;99.90;;;;;;4966505;28;20029;-69
2023/06/02 05:55:55;;;;;;;6.70;3.90;;;20.00;99.90;;;;;;4970485;28;20394;-69
2023/06/02 05:58:21;;;;;;;8.52;3.50;;;20.10;99.90;;;;;;4982632;28;20084;-69
2023/06/02 06:00:47;;;;;;;3.55;3.25;;;20.20;99.90;;;;;;4970983;28;20031;-69
2023/06/02 06:03:14;;;;;;;7.25;3.50;;;20.40;99.90;;;;;;4964247;28;20058;-69
2023/06/02 06:05:40;;;;;;;5.28;4.28;;;20.50;99.90;;;;;;4965004;28;20023;-69
2023/06/02 06:08:05;;;;;;;4.53;4.13;;;20.70;99.90;;;;;;4964128;28;20065;-69
2023/06/02 07:10:38;;;;;;;4.45;3.35;;;22.70;99.90;;;;;;5039288;27;21051;-69
2023/06/02 07:13:03;;;;;;;4.82;3.55;;;22.70;99.90;;;;;;5053422;28;20036;-69
2023/06/02 07:15:29;;;;;;;7.85;3.80;;;22.90;99.90;;;;;;5057323;28;20033;-69
2023/06/02 07:17:55;;;;;;;8.23;3.28;;;23.00;99.90;;;;;;5060913;28;20028;-69
2023/06/02 07:20:21;;;;;;;4.60;3.20;;;23.20;99.90;;;;;;5056228;28;20047;-68
2023/06/02 07:22:46;;;;;;;4.63;3.00;;;23.30;99.90;;;;;;5060452;28;20096;-68
2023/06/02 07:25:12;;;;;;;4.03;3.13;;;23.40;99.90;;;;;;5054666;28;20590;-68
2023/06/02 07:27:38;;;;;;;5.18;3.10;;;23.60;99.90;;;;;;5044482;28;20032;-68
2023/06/02 07:30:04;;;;;;;3.72;2.33;;;23.80;99.90;;;;;;5059804;28;20783;-68
2023/06/02 07:32:30;;;;;;;3.55;2.60;;;24.00;99.90;;;;;;5065760;28;20043;-69
2023/06/02 07:34:55;;;;;;;4.75;2.65;;;24.20;99.90;;;;;;5070135;28;20132;-70
2023/06/02 07:37:21;;;;;;;4.50;2.42;;;24.30;99.90;;;;;;5067351;28;20020;-69
2023/06/02 07:39:47;;;;;;;2.65;2.33;;;24.40;99.90;;;;;;5064979;28;20031;-69
2023/06/02 07:42:12;;;;;;;2.30;1.90;;;24.40;99.90;;;;;;5070634;28;20120;-73
2023/06/02 07:44:38;;;;;;;3.45;2.10;;;24.40;99.90;;;;;;5076206;28;20055;-73
2023/06/02 07:47:07;;;;;;;3.42;1.85;;;24.50;99.90;;;;;;5069785;28;20020;-71
2023/06/02 07:49:33;;;;;;;2.28;1.40;;;24.60;99.90;;;;;;5073553;28;20677;-70
2023/06/02 07:51:59;;;;;;;3.35;1.63;;;24.70;99.90;;;;;;5072077;28;20052;-71
2023/06/02 07:54:25;;;;;;;2.42;2.03;;;24.70;99.90;;;;;;5065081;28;20128;-71
2023/06/02 07:56:51;;;;;;;2.78;1.73;;;24.80;99.90;;;;;;5071644;28;20755;-71
2023/06/02 07:59:18;;;;;;;4.78;1.98;;;24.90;99.90;;;;;;5046445;28;20536;-69
2023/06/02 08:01:44;;;;;;;2.30;1.58;;;24.90;98.50;;;;;;5064113;28;20029;-71
2023/06/02 08:04:10;;;;;;;2.83;1.60;;;24.90;98.00;;;;;;5062560;28;20028;-74
2023/06/02 08:06:36;;;;;;;2.20;1.48;;;24.90;98.60;;;;;;5070136;28;20040;-72
2023/06/02 08:09:01;;;;;;;2.45;1.60;;;25.00;98.50;;;;;;5068023;28;20661;-71
2023/06/02 08:11:27;;;;;;;2.20;1.60;;;25.10;98.00;;;;;;5069193;28;20029;-72
2023/06/02 08:13:53;;;;;;;2.17;1.65;;;25.10;96.20;;;;;;5069650;28;20036;-72
2023/06/02 08:16:18;;;;;;;4.05;1.65;;;25.20;97.40;;;;;;5072251;28;20032;-72
2023/06/02 08:18:44;;;;;;;3.65;1.83;;;25.20;96.10;;;;;;5068490;28;20493;-69
2023/06/02 08:21:10;;;;;;;2.17;1.80;;;25.20;94.50;;;;;;5060211;28;20036;-72
2023/06/02 08:23:35;;;;;;;3.17;1.83;;;25.30;97.20;;;;;;5055544;28;20032;-71
2023/06/02 08:26:01;;;;;;;2.60;1.75;;;25.30;94.80;;;;;;5055988;28;20025;-73
2023/06/02 08:28:29;;;;;;;3.17;1.67;;;25.30;94.50;;;;;;5054059;28;20397;-73
2023/06/02 08:30:58;;;;;;;4.32;2.13;;;25.20;94.40;;;;;;5053686;28;20477;-72
2023/06/02 08:33:24;;;;;;;4.25;1.80;;;25.20;93.10;;;;;;5053367;28;20127;-72
2023/06/02 08:35:51;;;;;;;2.58;1.95;;;25.10;94.40;;;;;;5058325;28;20039;-72
2023/06/02 08:38:17;;;;;;;2.85;1.65;;;25.00;94.90;;;;;;5057101;28;20111;-72
2023/06/02 08:40:46;;;;;;;11.27;3.25;;;25.00;93.90;;;;;;5055790;28;20047;-71
2023/06/02 08:43:13;;;;;;;5.65;2.00;;;25.00;94.80;;;;;;5055774;28;20103;-73
2023/06/02 08:45:49;;;;;;;4.35;1.70;;;25.10;95.70;;;;;;5049998;28;20029;-73
2023/06/02 08:48:17;;;;;;;3.67;1.55;;;25.30;95.10;;;;;;5052866;28;20944;-73
2023/06/02 08:50:53;;;;;;;3.63;2.30;;;25.20;92.80;;;;;;5052159;28;20028;-73
2023/06/02 08:53:22;;;;;;;2.88;1.90;;;25.10;93.50;;;;;;5050452;28;20040;-73
2023/06/02 08:55:48;;;;;;;4.72;2.30;;;25.20;95.10;;;;;;5033617;28;20868;-73
2023/06/02 08:58:14;;;;;;;4.60;2.00;;;25.30;93.50;;;;;;5050293;28;20123;-73
2023/06/02 09:00:40;;;;;;;2.33;1.75;;;25.40;94.30;;;;;;5048982;28;20049;-73
2023/06/02 09:03:06;;;;;;;6.38;2.00;;;25.40;94.50;;;;;;5050274;28;20052;-73
2023/06/02 09:05:32;;;;;;;5.50;2.58;;;25.30;94.30;;;;;;5054202;28;20362;-74
2023/06/02 09:08:14;;;;;;;2.67;2.15;;;25.20;94.10;;;;;;5059420;28;20029;-73
2023/06/02 09:10:41;;;;;;;;;;;25.20;93.50;;;;;;5000574;28;20172;-72
2023/06/02 09:13:27;;;;;;;3.88;2.08;;;25.20;91.90;;;;;;5008092;28;19994;-73
2023/06/02 09:15:58;;;;;;;5.75;2.47;;;25.20;94.00;;;;;;5011069;28;20025;-70
2023/06/02 09:18:23;;;;;;;14.00;2.35;;;25.40;94.30;;;;;;5009679;28;20104;-69
2023/06/02 09:20:50;;;;;;;1.55;1.00;;;25.50;94.60;;;;;;5005315;28;21920;-69
2023/06/02 09:23:16;;;;;;;2.00;1.20;;;25.70;88.10;;;;;;5005916;28;20033;-69
2023/06/02 09:25:43;;;;;;;2.22;1.23;;;25.90;90.40;;;;;;4997798;28;20481;-69
2023/06/02 09:28:09;;;;;;;1.60;1.30;;;26.00;84.70;;;;;;5015363;28;20021;-69
2023/06/02 09:30:35;;;;;;;2.08;1.20;;;26.00;84.90;;;;;;5018564;28;20056;-69
2023/06/02 09:33:11;;;;;;;1.75;1.58;;;26.00;80.80;;;;;;5009974;28;20486;-69
2023/06/02 09:35:44;;;;;;;1.67;1.58;;;25.90;81.10;;;;;;5011835;28;20154;-68
2023/06/02 09:38:17;;;;;;;1.98;1.50;;;25.90;81.30;;;;;;5016993;28;20048;-69
2023/06/02 09:40:43;;;;;;;3.28;1.55;;;26.10;84.20;;;;;;5014615;28;20663;-69
2023/06/02 09:43:12;;;;;;;9.10;2.25;;;26.30;81.70;;;;;;5005403;28;20088;-69
2023/06/02 09:45:46;;;;;;;2.60;1.30;;;26.40;74.00;;;;;;5017519;28;20712;-69
2023/06/02 09:48:22;;;;;;;1.60;1.30;;;26.30;73.80;;;;;;5012583;28;20091;-69
2023/06/02 09:50:48;;;;;;;3.30;1.42;;;26.40;81.00;;;;;;5007373;28;20033;-69
2023/06/02 09:53:17;;;;;;;2.00;1.33;;;26.40;78.70;;;;;;5014396;28;20494;-69
2023/06/02 09:55:45;;;;;;;2.03;1.33;;;26.40;80.00;;;;;;5009208;28;20379;-72
2023/06/02 09:58:11;;;;;;;3.88;1.50;;;26.30;81.20;;;;;;5013807;28;20286;-72
2023/06/02 10:00:37;;;;;;;1.55;1.10;;;26.20;81.10;;;;;;5016711;28;20044;-73
2023/06/02 10:03:04;;;;;;;3.58;1.40;;;26.30;74.60;;;;;;5006149;28;20017;-73
2023/06/02 10:05:30;;;;;;;2.20;1.30;;;26.30;75.40;;;;;;5008890;28;20674;-72
2023/06/02 10:08:16;;;;;;;2.60;1.08;;;26.10;78.80;;;;;;5006666;28;20071;-73
2023/06/02 10:11:21;;;;;;;1.30;0.95;;;26.20;77.00;;;;;;5006811;28;20665;-73
2023/06/02 10:13:55;;;;;;;1.50;1.33;;;26.30;77.30;;;;;;5009865;28;20380;-72
2023/06/02 10:16:36;;;;;;;2.10;1.45;;;26.20;73.70;;;;;;5004484;28;20736;-73
2023/06/02 10:19:22;;;;;;;3.42;1.50;;;26.10;80.40;;;;;;5012470;28;20738;-73
2023/06/02 10:22:08;;;;;;;1.35;1.10;;;26.20;77.70;;;;;;5014823;28;20064;-72
2023/06/02 10:24:45;;;;;;;3.15;1.30;;;26.40;83.00;;;;;;5017821;28;20026;-72
2023/06/02 10:27:30;;;;;;;4.63;1.40;;;26.60;76.10;;;;;;5014936;28;20026;-72
2023/06/02 10:29:56;;;;;;;1.77;1.15;;;26.70;79.50;;;;;;5014435;28;20036;-73
2023/06/02 10:32:33;;;;;;;1.88;1.30;;;26.80;77.10;;;;;;5008632;28;20026;-73
2023/06/02 10:35:00;;;;;;;3.63;1.30;;;26.90;75.90;;;;;;5015857;28;20040;-72
2023/06/02 10:37:27;;;;;;;5.22;1.27;;;27.00;75.30;;;;;;5009714;28;20057;-72
2023/06/02 10:39:55;;;;;;;3.17;1.48;;;27.00;78.00;;;;;;5016825;28;20053;-70
2023/06/02 10:42:27;;;;;;;2.95;0.95;;;27.10;73.40;;;;;;5012036;28;20097;-70
2023/06/02 10:45:26;;;;;;;2.10;1.33;;;27.00;72.00;;;;;;5014357;28;20030;-70
2023/06/02 10:47:52;;;;;;;1.40;1.20;;;27.00;70.60;;;;;;5013592;28;20095;-70
2023/06/02 10:50:21;;;;;;;1.63;1.40;;;26.90;68.80;;;;;;5012494;28;20041;-70
2023/06/02 10:52:59;;;;;;;4.38;1.52;;;26.90;65.20;;;;;;5001809;28;20041;-70
2023/06/02 10:55:30;;;;;;;3.38;1.40;;;26.70;69.00;;;;;;5008207;28;20060;-70
2023/06/02 10:57:56;;;;;;;4.28;1.45;;;26.80;66.00;;;;;;5010461;28;20029;-70
2023/06/02 11:00:36;;;;;;;1.73;1.23;;;26.60;65.90;;;;;;5010556;28;20040;-70
2023/06/02 11:03:22;;;;;;;2.60;1.20;;;26.60;64.90;;;;;;5009233;28;20021;-70
2023/06/02 11:05:54;;;;;;;2.25;1.63;;;26.70;70.90;;;;;;5018285;28;20067;-70
2023/06/02 11:08:22;;;;;;;1.98;1.30;;;26.80;68.60;;;;;;5020900;28;20781;-70
2023/06/02 11:10:50;;;;;;;2.65;1.65;;;26.80;68.90;;;;;;5050668;28;20489;-70
2023/06/02 11:13:20;;;;;;;3.92;1.50;;;26.90;66.70;;;;;;5053336;28;20040;-70
2023/06/02 11:15:58;;;;;;;10.88;2.10;;;26.90;71.30;;;;;;5055979;28;20024;-70
2023/06/02 11:18:32;;;;;;;2.33;1.70;;;27.00;74.90;;;;;;5052390;28;20033;-70
2023/06/02 11:21:00;;;;;;;2.90;1.55;;;27.10;73.20;;;;;;5055888;28;20032;-70
2023/06/02 11:23:26;;;;;;;3.88;1.92;;;27.20;68.30;;;;;;5058162;28;20025;-70
2023/06/02 11:26:01;;;;;;;7.28;1.65;;;27.10;73.00;;;;;;5049052;28;20029;-70
2023/06/02 11:28:27;;;;;;;3.45;1.60;;;26.90;71.10;;;;;;5054752;28;20032;-70
2023/06/02 11:31:14;;;;;;;2.33;1.80;;;26.70;76.70;;;;;;5057755;28;20044;-69
2023/06/02 11:33:52;;;;;;;2.75;1.75;;;26.50;77.10;;;;;;5048333;28;20037;-69
2023/06/02 11:36:27;;;;;;;2.40;1.85;;;26.30;78.40;;;;;;5057183;28;20114;-69
2023/06/02 11:39:04;;;;;;;1.63;1.50;;;26.10;76.70;;;;;;5045383;28;20653;-69
2023/06/02 11:41:29;;;;;;;6.22;1.67;;;26.00;78.30;;;;;;5033092;28;20032;-70
2023/06/02 11:44:07;;;;;;;7.47;1.55;;;25.90;73.70;;;;;;5046319;28;20584;-70
2023/06/02 11:46:33;;;;;;;3.58;1.60;;;25.80;75.70;;;;;;5050610;28;20458;-70
2023/06/02 11:48:59;;;;;;;6.25;1.50;;;25.70;74.90;;;;;;5051178;28;20122;-70
2023/06/02 11:51:25;;;;;;;1.45;1.35;;;25.70;76.10;;;;;;5052560;28;20481;-69
2023/06/02 11:54:08;;;;;;;4.15;1.63;;;25.60;75.10;;;;;;5056750;28;20078;-70
2023/06/02 11:56:35;;;;;;;2.45;1.50;;;25.60;72.90;;;;;;5052750;28;20035;-69
2023/06/02 11:59:01;;;;;;;2.85;1.50;;;25.50;73.00;;;;;;5057269;28;20359;-69
2023/06/02 12:01:33;;;;;;;6.22;1.50;;;25.50;73.00;;;;;;5051501;28;20985;-69
2023/06/02 12:04:04;;;;;;;1.40;1.20;;;25.50;76.20;;;;;;5042096;28;20082;-70
2023/06/02 12:06:31;;;;;;;2.30;1.55;;;25.40;75.40;;;;;;5053517;28;20101;-71
2023/06/02 12:09:12;;;;;;;1.52;1.35;;;25.50;77.40;;;;;;5049771;28;20040;-69
2023/06/02 12:11:37;;;;;;;2.40;1.45;;;25.50;74.90;;;;;;5048568;28;20556;-69
2023/06/02 12:14:05;;;;;;;1.55;1.30;;;25.50;75.60;;;;;;5049874;28;20032;-69
2023/06/02 12:16:32;;;;;;;1.58;1.45;;;25.70;75.90;;;;;;5049007;28;20064;-69
2023/06/02 12:19:29;;;;;;;1.88;1.50;;;25.90;74.80;;;;;;5053433;28;20036;-70
2023/06/02 12:22:14;;;;;;;2.33;1.80;;;25.90;76.60;;;;;;4997436;28;20040;-70
2023/06/02 12:24:41;;;;;;;2.40;2.00;;;26.00;78.60;;;;;;5050213;28;20040;-70
2023/06/02 12:27:08;;;;;;;3.13;1.52;;;26.00;74.00;;;;;;5051519;28;20897;-70
2023/06/02 12:29:35;;;;;;;1.88;1.50;;;26.10;75.70;;;;;;5051907;28;20036;-69
2023/06/02 12:32:02;;;;;;;3.40;1.30;;;26.40;74.30;;;;;;5054324;28;20453;-69
2023/06/02 12:34:29;;;;;;;2.00;1.38;;;26.60;64.70;;;;;;5056942;28;20490;-69
2023/06/02 12:36:55;;;;;;;2.70;1.20;;;26.70;70.80;;;;;;5053909;28;20151;-70
2023/06/02 12:39:21;;;;;;;1.10;1.00;;;26.90;67.20;;;;;;5060275;28;20037;-70
2023/06/02 12:41:46;;;;;;;1.30;1.20;;;26.90;64.10;;;;;;5062792;28;20067;-70
2023/06/02 12:44:12;;;;;;;1.95;1.40;;;27.10;66.50;;;;;;5059584;28;20024;-70
2023/06/02 12:46:39;;;;;;;3.75;1.30;;;27.10;61.90;;;;;;5059031;28;20025;-70
2023/06/02 12:49:05;;;;;;;2.17;1.70;;;27.10;65.40;;;;;;5040193;28;20044;-71
2023/06/02 12:51:33;;;;;;;1.20;1.10;;;27.10;63.60;;;;;;5061995;28;20039;-70
2023/06/02 12:53:59;;;;;;;1.10;1.00;;;27.20;61.60;;;;;;5058083;28;20443;-70
2023/06/02 12:56:25;;;;;;;2.47;1.45;;;27.20;60.00;;;;;;5055123;28;20033;-70
2023/06/02 12:58:51;;;;;;;2.55;1.20;;;27.30;60.40;;;;;;5057487;28;20025;-70
2023/06/02 13:01:17;;;;;;;1.20;1.10;;;27.30;62.70;;;;;;5058090;28;20029;-70
2023/06/02 13:03:49;;;;;;;1.38;1.27;;;27.30;59.00;;;;;;5056965;28;20009;-70
2023/06/02 13:06:16;;;;;;;1.92;1.38;;;27.30;56.60;;;;;;5060462;28;20174;-70
2023/06/02 13:08:42;;;;;;;1.70;1.20;;;27.20;58.20;;;;;;5059623;28;20127;-70
2023/06/02 13:11:09;;;;;;;2.85;1.48;;;27.30;63.60;;;;;;5056311;28;20041;-71
2023/06/02 13:13:35;;;;;;;2.33;1.40;;;27.40;63.00;;;;;;5058092;28;20134;-71
2023/06/02 13:16:01;;;;;;;4.22;1.67;;;27.40;63.30;;;;;;5055705;28;20133;-70
2023/06/02 13:18:27;;;;;;;3.88;1.30;;;27.40;66.40;;;;;;5059501;28;20693;-70
2023/06/02 13:20:54;;;;;;;1.52;1.40;;;27.40;62.40;;;;;;5059375;28;20036;-70
2023/06/02 13:23:21;;;;;;;1.73;1.55;;;27.40;66.30;;;;;;5054534;28;20017;-71
2023/06/02 13:25:47;;;;;;;2.03;1.55;;;27.40;61.50;;;;;;5063864;28;20060;-71
2023/06/02 13:28:12;;;;;;;5.07;1.45;;;27.40;61.90;;;;;;5055926;28;20056;-71
2023/06/02 13:30:38;;;;;;;3.97;1.83;;;27.40;64.50;;;;;;5057963;28;20082;-71
2023/06/02 13:33:04;;;;;;;1.88;1.60;;;27.50;66.30;;;;;;5057183;28;20024;-70
2023/06/02 13:35:30;;;;;;;2.15;1.95;;;27.60;62.20;;;;;;5060148;28;20037;-70
2023/06/02 13:37:55;;;;;;;3.03;1.70;;;27.60;64.70;;;;;;5061286;28;20389;-70
2023/06/02 13:40:21;;;;;;;5.50;1.70;;;27.60;65.10;;;;;;5052026;28;20402;-70
2023/06/02 13:42:47;;;;;;;5.38;2.03;;;27.50;62.90;;;;;;5058218;28;20032;-70
2023/06/02 13:45:13;;;;;;;2.80;1.70;;;27.50;63.40;;;;;;5057092;28;20032;-70
2023/06/02 13:47:38;;;;;;;2.97;1.65;;;27.50;62.40;;;;;;5060229;28;20036;-70
2023/06/02 13:50:05;;;;;;;2.10;1.70;;;27.60;62.20;;;;;;5059567;28;20481;-70